createdAt,value
2023-05-16T00:01:27.085Z,102083.47
2023-05-16T00:03:53.706Z,102087.03
2023-05-16T00:06:20.500Z,102089.72
2023-05-16T00:08:47.484Z,102091.63
2023-05-16T00:11:14.015Z,102090.75
2023-05-16T00:13:42.916Z,102097.88
2023-05-16T00:16:10.020Z,102097.88
2023-05-16T00:18:37.653Z,102094.34
2023-05-16T00:21:04.890Z,102095.25
2023-05-16T00:23:31.657Z,102097.94
2023-05-16T00:25:58.369Z,102096.19
2023-05-16T00:28:24.895Z,102098.91
2023-05-16T00:30:51.519Z,102098.16
2023-05-16T00:33:18.051Z,102090.22
2023-05-16T00:35:44.728Z,102092.97
2023-05-16T00:38:11.365Z,102087.66
2023-05-16T00:40:38.381Z,102099.25
2023-05-16T00:43:05.060Z,102096.66
2023-05-16T00:45:31.600Z,102098.47
2023-05-16T00:47:58.265Z,102100.34
2023-05-16T00:50:25.153Z,102090.66
2023-05-16T00:52:51.996Z,102098.69
2023-05-16T00:55:18.840Z,102095.16
2023-05-16T00:57:45.533Z,102105.88
2023-05-16T01:00:15.241Z,102095.28
2023-05-16T01:02:42.108Z,102097.09
2023-05-16T01:05:09.309Z,102101.59
2023-05-16T01:07:36.152Z,102098.97
2023-05-16T01:10:04.064Z,102095.44
2023-05-16T01:13:02.791Z,102099.88
2023-05-16T01:15:37.107Z,102093.78
2023-05-16T01:18:13.554Z,102104.44
2023-05-16T01:20:52.139Z,102108.94
2023-05-16T01:23:40.157Z,102116.06
2023-05-16T01:26:25.099Z,102108.16
2023-05-16T01:28:52.954Z,102115.28
2023-05-16T01:31:21.044Z,102109.09
2023-05-16T01:33:48.275Z,102116.22
2023-05-16T01:36:24.629Z,102109.16
2023-05-16T01:39:27.056Z,102112.72
2023-05-16T01:42:07.905Z,102110.13
2023-05-16T01:45:04.388Z,102113.72
2023-05-16T01:47:33.139Z,102115.53
2023-05-16T01:50:15.716Z,102120.88
2023-05-16T01:52:47.974Z,102119.09
2023-05-16T01:55:23.692Z,102120.00
2023-05-16T01:57:52.794Z,102115.63
2023-05-16T02:00:20.961Z,102112.13
2023-05-16T02:02:47.495Z,102123.63
2023-05-16T02:05:14.133Z,102120.16
2023-05-16T02:07:41.221Z,102123.69
2023-05-16T02:10:08.274Z,102122.81
2023-05-16T02:12:34.840Z,102127.22
2023-05-16T02:15:01.516Z,102131.66
2023-05-16T02:17:28.128Z,102131.72
2023-05-16T02:19:57.064Z,102136.16
2023-05-16T02:22:23.789Z,102135.28
2023-05-16T02:24:50.464Z,102132.63
2023-05-16T02:27:17.036Z,102136.19
2023-05-16T02:29:43.641Z,102139.72
2023-05-16T02:32:10.277Z,102136.22
2023-05-16T02:34:36.837Z,102143.31
2023-05-16T02:37:03.330Z,102132.72
2023-05-16T02:39:30.061Z,102142.44
2023-05-16T02:41:56.557Z,102138.91
2023-05-16T02:44:23.154Z,102141.56
2023-05-16T02:46:49.747Z,102146.88
2023-05-16T02:49:17.020Z,102150.44
2023-05-16T02:51:43.604Z,102147.81
2023-05-16T02:54:10.260Z,102149.56
2023-05-16T02:56:37.276Z,102142.50
2023-05-16T02:59:04.662Z,102154.88
2023-05-16T03:01:31.245Z,102157.53
2023-05-16T03:03:58.058Z,102154.00
2023-05-16T03:06:24.647Z,102165.50
2023-05-16T03:08:51.246Z,102162.84
2023-05-16T03:11:22.259Z,102159.31
2023-05-16T03:13:49.828Z,102161.09
2023-05-16T03:16:16.525Z,102164.63
2023-05-16T03:18:43.319Z,102154.94
2023-05-16T03:21:09.868Z,102164.66
2023-05-16T03:23:36.477Z,102164.66
2023-05-16T03:26:03.073Z,102170.88
2023-05-16T03:28:29.617Z,102165.59
2023-05-16T03:30:56.120Z,102177.09
2023-05-16T03:33:24.420Z,102178.00
2023-05-16T03:35:52.093Z,102171.81
2023-05-16T03:38:18.726Z,102178.00
2023-05-16T03:40:45.441Z,102176.25
2023-05-16T03:43:11.950Z,102178.91
2023-05-16T03:45:38.618Z,102175.38
2023-05-16T03:48:05.340Z,102177.16
2023-05-16T03:50:31.949Z,102178.03
2023-05-16T03:52:58.502Z,102184.25
2023-05-16T03:55:25.203Z,102193.09
2023-05-16T03:57:52.428Z,102203.72
2023-05-16T04:00:18.972Z,102194.00
2023-05-16T04:02:45.832Z,102195.75
2023-05-16T04:05:13.168Z,102194.88
2023-05-16T04:07:41.006Z,102196.63
2023-05-16T04:10:09.165Z,102202.81
2023-05-16T04:12:35.962Z,102197.53
2023-05-16T04:15:06.802Z,102202.81
2023-05-16T04:17:34.471Z,102197.53
2023-05-16T04:20:01.023Z,102198.41
2023-05-16T04:22:27.565Z,102204.63
2023-05-16T04:24:54.081Z,102206.41
2023-05-16T04:27:20.613Z,102214.31
2023-05-16T04:29:47.280Z,102211.66
2023-05-16T04:32:13.783Z,102212.56
2023-05-16T04:34:41.069Z,102216.97
2023-05-16T04:37:08.387Z,102219.63
2023-05-16T04:39:36.189Z,102220.50
2023-05-16T04:42:03.699Z,102219.63
2023-05-16T04:44:30.558Z,102218.75
2023-05-16T04:46:57.694Z,102223.16
2023-05-16T04:49:24.442Z,102224.91
2023-05-16T04:51:51.194Z,102233.75
2023-05-16T04:54:17.994Z,102229.34
2023-05-16T04:56:44.665Z,102231.97
2023-05-16T04:59:11.307Z,102238.16
2023-05-16T05:01:37.953Z,102238.16
2023-05-16T05:04:04.624Z,102241.69
2023-05-16T05:06:31.528Z,102239.91
2023-05-16T05:08:58.208Z,102243.44
2023-05-16T05:11:24.796Z,102236.34
2023-05-16T05:13:52.898Z,102243.41
2023-05-16T05:16:19.908Z,102233.66
2023-05-16T05:18:46.588Z,102239.84
2023-05-16T05:21:13.279Z,102239.81
2023-05-16T05:23:40.264Z,102238.94
2023-05-16T05:26:07.043Z,102244.19
2023-05-16T05:28:33.809Z,102243.28
2023-05-16T05:31:00.561Z,102243.25
2023-05-16T05:33:30.424Z,102246.78
2023-05-16T05:35:57.649Z,102260.84
2023-05-16T05:38:24.223Z,102258.16
2023-05-16T05:40:50.981Z,102252.81
2023-05-16T05:43:17.721Z,102256.34
2023-05-16T05:45:44.769Z,102263.38
2023-05-16T05:48:12.818Z,102248.28
2023-05-16T05:50:39.973Z,102254.41
2023-05-16T05:53:06.744Z,102264.09
2023-05-16T05:55:33.321Z,102261.34
2023-05-16T05:57:59.868Z,102259.41
2023-05-16T06:00:26.546Z,102266.25
2023-05-16T06:02:53.340Z,102270.41
2023-05-16T06:05:20.451Z,102267.53
2023-05-16T06:07:47.121Z,102270.94
2023-05-16T06:10:13.665Z,102269.81
2023-05-16T06:12:40.190Z,102269.47
2023-05-16T06:15:07.630Z,102277.88
2023-05-16T06:17:34.301Z,102280.97
2023-05-16T06:20:01.055Z,102283.19
2023-05-16T06:22:27.557Z,102280.03
2023-05-16T06:24:54.051Z,102286.69
2023-05-16T06:27:20.693Z,102284.44
2023-05-16T06:29:49.984Z,102284.75
2023-05-16T06:32:16.581Z,102290.97
2023-05-16T06:34:43.089Z,102288.31
2023-05-16T06:37:09.693Z,102290.03
2023-05-16T06:39:36.222Z,102283.59
2023-05-16T06:42:08.201Z,102284.75
2023-05-16T06:44:34.979Z,102285.44
2023-05-16T06:47:01.885Z,102279.22
2023-05-16T06:49:28.569Z,102271.66
2023-05-16T06:51:55.103Z,102283.88
2023-05-16T06:54:22.083Z,102283.91
2023-05-16T06:56:49.076Z,102291.94
2023-05-16T06:59:21.585Z,102277.91
2023-05-16T07:01:48.848Z,102277.06
2023-05-16T07:04:18.252Z,102290.25
2023-05-16T07:06:44.846Z,102281.41
2023-05-16T07:09:11.925Z,102282.75
2023-05-16T07:11:38.597Z,102283.50
2023-05-16T07:14:05.218Z,102281.59
2023-05-16T07:16:35.097Z,102289.72
2023-05-16T07:19:02.097Z,102281.53
2023-05-16T07:21:29.337Z,102288.59
2023-05-16T07:23:56.318Z,102282.63
2023-05-16T07:26:23.880Z,102286.44
2023-05-16T07:28:51.005Z,102289.91
2023-05-16T07:31:17.832Z,102290.53
2023-05-16T07:33:46.883Z,102301.75
2023-05-16T07:36:16.729Z,102291.53
2023-05-16T07:38:46.538Z,102299.53
2023-05-16T07:41:13.228Z,102295.59
2023-05-16T07:43:39.849Z,102291.75
2023-05-16T07:46:06.582Z,102289.13
2023-05-16T07:48:35.548Z,102287.31
2023-05-16T07:51:02.155Z,102295.81
2023-05-16T07:53:28.777Z,102292.00
2023-05-16T07:55:55.789Z,102295.78
2023-05-16T07:58:22.462Z,102304.72
2023-05-16T08:00:49.467Z,102316.09
2023-05-16T08:03:16.394Z,102324.94
2023-05-16T08:05:43.246Z,102318.06
2023-05-16T08:08:09.856Z,102323.50
2023-05-16T08:10:36.396Z,102326.78
2023-05-16T08:13:04.050Z,102332.75
2023-05-16T08:15:31.068Z,102324.41
2023-05-16T08:17:59.079Z,102322.31
2023-05-16T08:20:26.561Z,102324.00
2023-05-16T08:22:53.625Z,102318.75
2023-05-16T08:25:20.663Z,102310.66
2023-05-16T08:27:49.719Z,102307.97
2023-05-16T08:30:16.412Z,102307.16
2023-05-16T08:32:43.473Z,102307.19
2023-05-16T08:35:11.037Z,102291.41
2023-05-16T08:37:37.819Z,102289.13
2023-05-16T08:40:08.338Z,102287.00
2023-05-16T08:42:35.703Z,102295.03
2023-05-16T08:45:08.834Z,102303.13
2023-05-16T08:47:37.580Z,102301.91
2023-05-16T08:50:05.237Z,102293.63
2023-05-16T08:52:33.447Z,102299.38
2023-05-16T08:55:12.601Z,102298.78
2023-05-16T08:57:40.927Z,102305.06
2023-05-16T09:00:12.410Z,102296.56
2023-05-16T09:02:41.535Z,102297.19
2023-05-16T09:05:11.010Z,102287.94
2023-05-16T09:07:37.658Z,102293.91
2023-05-16T09:10:07.038Z,102298.34
2023-05-16T09:12:34.717Z,102310.81
2023-05-16T09:15:06.386Z,102310.56
2023-05-16T09:17:45.539Z,102319.47
2023-05-16T09:20:20.146Z,102304.78
2023-05-16T09:22:55.453Z,102311.25
2023-05-16T09:27:55.968Z,102300.09
2023-05-16T09:30:27.434Z,102300.53
2023-05-16T09:32:54.361Z,102307.34
2023-05-16T09:35:39.919Z,102311.25
2023-05-16T09:38:17.327Z,102303.72
2023-05-16T09:40:45.302Z,102294.34
2023-05-16T09:43:16.786Z,102304.97
2023-05-16T09:45:49.152Z,102303.78
2023-05-16T09:48:17.992Z,102301.13
2023-05-16T09:50:54.742Z,102310.50
2023-05-16T09:53:29.664Z,102310.25
2023-05-16T09:56:13.902Z,102311.28
2023-05-16T09:58:43.315Z,102307.13
2023-05-16T10:01:11.634Z,102304.25
2023-05-16T10:03:42.567Z,102299.94
2023-05-16T10:06:10.636Z,102301.41
2023-05-16T10:08:38.426Z,102290.50
2023-05-16T10:11:06.897Z,102296.34
2023-05-16T10:13:36.013Z,102313.09
2023-05-16T10:16:08.475Z,102298.22
2023-05-16T10:18:36.323Z,102302.00
2023-05-16T10:21:11.796Z,102311.72
2023-05-16T10:23:42.748Z,102304.38
2023-05-16T10:26:11.811Z,102312.91
2023-05-16T10:28:40.878Z,102305.56
2023-05-16T10:31:08.480Z,102310.47
2023-05-16T10:33:36.475Z,102303.75
2023-05-16T10:36:05.303Z,102306.53
2023-05-16T10:38:32.591Z,102299.66
2023-05-16T10:40:59.321Z,102312.66
2023-05-16T10:43:28.329Z,102299.09
2023-05-16T10:45:57.185Z,102313.63
2023-05-16T10:48:32.038Z,102310.91
2023-05-16T10:50:58.860Z,102311.41
2023-05-16T10:53:32.467Z,102313.19
2023-05-16T10:55:59.033Z,102306.25
2023-05-16T10:58:40.753Z,102303.25
2023-05-16T11:01:24.350Z,102304.72
2023-05-16T11:03:57.003Z,102304.19
2023-05-16T11:06:25.774Z,102296.84
2023-05-16T11:09:22.286Z,102308.53
2023-05-16T11:11:51.936Z,102299.50
2023-05-16T11:14:42.364Z,102296.03
2023-05-16T11:17:23.790Z,102311.31
2023-05-16T11:20:01.435Z,102314.78
2023-05-16T11:22:34.219Z,102311.63
2023-05-16T11:25:02.187Z,102311.19
2023-05-16T11:27:37.275Z,102312.78
2023-05-16T11:30:06.515Z,102315.19
2023-05-16T11:32:38.841Z,102313.19
2023-05-16T11:35:08.986Z,102320.81
2023-05-16T11:37:39.690Z,102326.09
2023-05-16T11:40:08.676Z,102337.63
2023-05-16T11:42:38.157Z,102336.94
2023-05-16T11:45:04.938Z,102333.66
2023-05-16T11:47:32.060Z,102340.75
2023-05-16T11:49:58.941Z,102344.94
2023-05-16T11:52:26.212Z,102329.03
2023-05-16T11:54:53.101Z,102335.56
2023-05-16T11:57:21.650Z,102348.50
2023-05-16T11:59:48.262Z,102336.59
2023-05-16T12:02:15.009Z,102341.78
2023-05-16T12:04:41.744Z,102345.53
2023-05-16T12:07:08.458Z,102342.88
2023-05-16T12:09:35.286Z,102354.38
2023-05-16T12:12:05.735Z,102345.53
2023-05-16T12:14:33.046Z,102343.94
2023-05-16T12:17:00.006Z,102341.34
2023-05-16T12:19:26.987Z,102338.16
2023-05-16T12:21:54.580Z,102339.25
2023-05-16T12:24:22.119Z,102343.59
2023-05-16T12:26:48.793Z,102337.53
2023-05-16T12:29:15.476Z,102333.44
2023-05-16T12:31:42.289Z,102354.00
2023-05-16T12:34:18.920Z,102350.00
2023-05-16T12:36:45.837Z,102350.22
2023-05-16T12:39:15.432Z,102348.50
2023-05-16T12:41:43.275Z,102352.75
2023-05-16T12:44:19.439Z,102357.06
2023-05-16T12:46:50.120Z,102354.19
2023-05-16T12:49:21.406Z,102353.13
2023-05-16T12:51:53.159Z,102351.78
2023-05-16T12:54:22.574Z,102346.50
2023-05-16T12:56:49.279Z,102347.44
2023-05-16T12:59:16.066Z,102345.91
2023-05-16T13:01:42.923Z,102350.50
2023-05-16T13:04:14.668Z,102349.00
2023-05-16T13:06:57.413Z,102358.16
2023-05-16T13:09:28.360Z,102366.53
2023-05-16T13:11:57.952Z,102348.31
2023-05-16T13:14:24.744Z,102358.13
2023-05-16T13:16:51.494Z,102350.88
2023-05-16T13:19:18.263Z,102352.69
2023-05-16T13:21:44.986Z,102362.38
2023-05-16T13:24:11.564Z,102364.00
2023-05-16T13:26:38.429Z,102361.59
2023-05-16T13:29:05.460Z,102354.91
2023-05-16T13:31:32.135Z,102356.00
2023-05-16T13:33:58.995Z,102359.06
2023-05-16T13:36:25.699Z,102357.38
2023-05-16T13:38:52.296Z,102363.06
2023-05-16T13:41:18.888Z,102361.81
2023-05-16T13:43:45.431Z,102357.38
2023-05-16T13:46:12.004Z,102355.63
2023-05-16T13:48:38.917Z,102356.47
2023-05-16T13:51:05.622Z,102356.81
2023-05-16T13:53:32.260Z,102352.81
2023-05-16T13:55:58.952Z,102345.84
2023-05-16T13:58:30.208Z,102351.34
2023-05-16T14:00:56.883Z,102355.28
2023-05-16T14:03:23.570Z,102351.75
2023-05-16T14:05:50.199Z,102348.06
2023-05-16T14:08:16.856Z,102354.50
2023-05-16T14:10:43.448Z,102361.91
2023-05-16T14:13:10.074Z,102358.31
2023-05-16T14:15:36.670Z,102356.47
2023-05-16T14:18:04.965Z,102359.22
2023-05-16T14:20:31.879Z,102362.75
2023-05-16T14:22:59.847Z,102361.06
2023-05-16T14:25:26.817Z,102362.88
2023-05-16T14:27:53.789Z,102361.06
2023-05-16T14:30:20.488Z,102356.59
2023-05-16T14:32:47.208Z,102355.66
2023-05-16T14:35:13.822Z,102359.22
2023-05-16T14:37:40.537Z,102369.97
2023-05-16T14:40:09.173Z,102367.44
2023-05-16T14:42:36.089Z,102363.91
2023-05-16T14:45:02.951Z,102363.94
2023-05-16T14:47:31.167Z,102365.16
2023-05-16T14:49:57.791Z,102352.66
2023-05-16T14:52:24.332Z,102357.13
2023-05-16T14:54:51.281Z,102356.25
2023-05-16T14:57:17.897Z,102362.53
2023-05-16T14:59:44.645Z,102359.22
2023-05-16T15:02:11.376Z,102364.31
2023-05-16T15:04:38.065Z,102361.53
2023-05-16T15:07:04.860Z,102361.31
2023-05-16T15:09:31.469Z,102360.44
2023-05-16T15:11:58.151Z,102366.63
2023-05-16T15:14:27.043Z,102354.81
2023-05-16T15:16:53.930Z,102358.38
2023-05-16T15:19:20.862Z,102360.91
2023-05-16T15:21:48.481Z,102366.16
2023-05-16T15:24:15.162Z,102365.13
2023-05-16T15:26:42.138Z,102365.00
2023-05-16T15:29:08.850Z,102366.78
2023-05-16T15:31:35.683Z,102368.28
2023-05-16T15:34:02.291Z,102361.97
2023-05-16T15:36:29.142Z,102369.22
2023-05-16T15:38:55.819Z,102371.16
2023-05-16T15:41:37.304Z,102373.06
2023-05-16T15:44:09.980Z,102372.28
2023-05-16T15:46:36.694Z,102376.72
2023-05-16T15:49:03.511Z,102377.84
2023-05-16T15:51:30.108Z,102377.13
2023-05-16T15:53:56.858Z,102384.34
2023-05-16T15:56:23.481Z,102384.34
2023-05-16T15:58:50.099Z,102390.97
2023-05-16T16:01:16.744Z,102385.81
2023-05-16T16:03:43.541Z,102392.44
2023-05-16T16:06:10.530Z,102388.97
2023-05-16T16:08:37.165Z,102392.84
2023-05-16T16:11:04.862Z,102392.25
2023-05-16T16:13:32.712Z,102396.81
2023-05-16T16:15:59.342Z,102396.94
2023-05-16T16:18:25.922Z,102402.47
2023-05-16T16:20:53.228Z,102392.00
2023-05-16T16:23:20.011Z,102401.88
2023-05-16T16:25:46.566Z,102398.53
2023-05-16T16:28:13.344Z,102402.94
2023-05-16T16:30:40.134Z,102403.84
2023-05-16T16:33:07.475Z,102394.97
2023-05-16T16:35:34.181Z,102397.88
2023-05-16T16:38:06.850Z,102396.28
2023-05-16T16:40:34.766Z,102407.22
2023-05-16T16:43:01.690Z,102405.72
2023-05-16T16:45:28.598Z,102410.25
2023-05-16T16:47:55.554Z,102411.97
2023-05-16T16:50:22.226Z,102409.28
2023-05-16T16:52:48.867Z,102420.88
2023-05-16T16:55:15.623Z,102417.19
2023-05-16T16:57:42.597Z,102414.41
2023-05-16T17:00:13.102Z,102414.31
2023-05-16T17:02:39.828Z,102419.56
2023-05-16T17:05:06.923Z,102412.41
2023-05-16T17:07:34.726Z,102421.56
2023-05-16T17:10:03.976Z,102425.97
2023-05-16T17:12:34.446Z,102429.63
2023-05-16T17:15:02.182Z,102426.91
2023-05-16T17:17:28.889Z,102416.22
2023-05-16T17:19:55.633Z,102428.00
2023-05-16T17:22:23.349Z,102428.00
2023-05-16T17:24:49.985Z,102435.16
2023-05-16T17:27:16.945Z,102434.25
2023-05-16T17:29:43.496Z,102436.03
2023-05-16T17:32:10.089Z,102449.38
2023-05-16T17:34:39.601Z,102450.38
2023-05-16T17:37:07.251Z,102442.38
2023-05-16T17:39:34.199Z,102445.97
2023-05-16T17:42:00.935Z,102448.66
2023-05-16T17:44:27.551Z,102452.28
2023-05-16T17:46:54.281Z,102447.97
2023-05-16T17:49:21.623Z,102450.66
2023-05-16T17:51:54.361Z,102448.78
2023-05-16T17:54:22.094Z,102447.09
2023-05-16T17:56:50.805Z,102446.25
2023-05-16T17:59:17.803Z,102449.84
2023-05-16T18:01:44.611Z,102460.56
2023-05-16T18:04:11.689Z,102472.03
2023-05-16T18:06:38.892Z,102474.59
2023-05-16T18:09:07.407Z,102458.66
2023-05-16T18:11:34.792Z,102474.66
2023-05-16T18:14:02.090Z,102475.56
2023-05-16T18:16:32.105Z,102483.59
2023-05-16T18:18:58.975Z,102472.03
2023-05-16T18:21:25.871Z,102476.44
2023-05-16T18:23:52.477Z,102486.31
2023-05-16T18:26:19.395Z,102485.44
2023-05-16T18:28:46.195Z,102490.09
2023-05-16T18:31:12.851Z,102493.72
2023-05-16T18:33:39.446Z,102491.13
2023-05-16T18:36:06.327Z,102492.03
2023-05-16T18:38:33.723Z,102491.31
2023-05-16T18:41:01.085Z,102489.66
2023-05-16T18:43:28.033Z,102494.22
2023-05-16T18:45:54.614Z,102496.09
2023-05-16T18:48:21.284Z,102493.53
2023-05-16T18:50:48.057Z,102490.13
2023-05-16T18:53:14.777Z,102500.00
2023-05-16T18:55:41.487Z,102497.44
2023-05-16T18:58:08.138Z,102507.25
2023-05-16T19:00:34.732Z,102502.00
2023-05-16T19:03:01.401Z,102504.78
2023-05-16T19:05:28.539Z,102506.75
2023-05-16T19:07:55.442Z,102513.91
2023-05-16T19:10:22.154Z,102514.00
2023-05-16T19:12:49.354Z,102521.19
2023-05-16T19:15:16.105Z,102519.56
2023-05-16T19:17:42.986Z,102526.78
2023-05-16T19:20:10.861Z,102523.34
2023-05-16T19:22:37.809Z,102535.06
2023-05-16T19:25:06.664Z,102524.41
2023-05-16T19:27:33.462Z,102527.97
2023-05-16T19:30:00.080Z,102537.88
2023-05-16T19:32:26.735Z,102537.03
2023-05-16T19:34:53.506Z,102533.53
2023-05-16T19:37:20.554Z,102539.84
2023-05-16T19:39:47.179Z,102541.69
2023-05-16T19:42:13.761Z,102548.03
2023-05-16T19:44:40.353Z,102541.88
2023-05-16T19:47:06.990Z,102549.09
2023-05-16T19:49:33.732Z,102545.56
2023-05-16T19:52:00.357Z,102549.22
2023-05-16T19:54:26.927Z,102543.06
2023-05-16T19:56:53.548Z,102545.81
2023-05-16T19:59:22.418Z,102557.47
2023-05-16T20:01:49.013Z,102547.75
2023-05-16T20:04:15.798Z,102551.31
2023-05-16T20:06:42.566Z,102554.00
2023-05-16T20:09:10.488Z,102560.28
2023-05-16T20:11:37.246Z,102553.22
2023-05-16T20:14:03.896Z,102550.56
2023-05-16T20:16:30.521Z,102557.66
2023-05-16T20:18:57.261Z,102558.53
2023-05-16T20:21:24.286Z,102558.63
2023-05-16T20:23:50.970Z,102558.59
2023-05-16T20:26:17.634Z,102561.28
2023-05-16T20:28:44.234Z,102557.75
2023-05-16T20:31:10.813Z,102558.56
2023-05-16T20:33:37.551Z,102565.72
2023-05-16T20:36:04.352Z,102567.50
2023-05-16T20:38:31.037Z,102568.41
2023-05-16T20:40:57.695Z,102578.22
2023-05-16T20:43:26.641Z,102572.94
2023-05-16T20:45:53.515Z,102575.66
2023-05-16T20:48:20.127Z,102579.19
2023-05-16T20:50:47.252Z,102573.94
2023-05-16T20:53:13.793Z,102583.72
2023-05-16T20:55:40.418Z,102588.19
2023-05-16T20:58:07.056Z,102582.94
2023-05-16T21:00:33.682Z,102582.94
2023-05-16T21:03:00.295Z,102595.41
2023-05-16T21:05:27.133Z,102591.03
2023-05-16T21:07:53.810Z,102593.72
2023-05-16T21:10:20.566Z,102587.56
2023-05-16T21:12:47.344Z,102592.91
2023-05-16T21:15:14.086Z,102594.69
2023-05-16T21:17:41.392Z,102587.66
2023-05-16T21:20:08.802Z,102597.44
2023-05-16T21:22:35.726Z,102595.66
2023-05-16T21:25:02.386Z,102590.41
2023-05-16T21:27:29.018Z,102599.28
2023-05-16T21:29:55.712Z,102606.41
2023-05-16T21:32:22.360Z,102603.75
2023-05-16T21:34:49.161Z,102600.25
2023-05-16T21:37:16.781Z,102607.34
2023-05-16T21:39:43.449Z,102604.69
2023-05-16T21:42:10.067Z,102600.31
2023-05-16T21:44:36.668Z,102605.63
2023-05-16T21:47:03.697Z,102613.66
2023-05-16T21:49:30.354Z,102615.44
2023-05-16T21:51:56.994Z,102621.69
2023-05-16T21:54:23.601Z,102619.91
2023-05-16T21:56:50.238Z,102619.03
2023-05-16T21:59:16.834Z,102622.59
2023-05-16T22:01:43.478Z,102620.88
2023-05-16T22:04:10.321Z,102617.38
2023-05-16T22:06:37.128Z,102620.91
2023-05-16T22:09:03.785Z,102627.13
2023-05-16T22:11:30.501Z,102626.28
2023-05-16T22:13:57.175Z,102633.38
2023-05-16T22:16:23.838Z,102632.50
2023-05-16T22:18:50.582Z,102625.44
2023-05-16T22:21:17.415Z,102622.78
2023-05-16T22:23:44.065Z,102622.78
2023-05-16T22:26:10.732Z,102613.94
2023-05-16T22:28:37.337Z,102618.34
2023-05-16T22:31:03.914Z,102624.56
2023-05-16T22:33:30.751Z,102631.69
2023-05-16T22:35:57.575Z,102628.16
2023-05-16T22:38:24.173Z,102629.91
2023-05-16T22:40:50.997Z,102629.03
2023-05-16T22:43:17.559Z,102631.69
2023-05-16T22:45:44.927Z,102629.94
2023-05-16T22:48:11.611Z,102629.06
2023-05-16T22:50:38.360Z,102629.97
2023-05-16T22:53:04.961Z,102639.72
2023-05-16T22:55:31.772Z,102646.78
2023-05-16T22:58:00.519Z,102643.28
2023-05-16T23:00:27.164Z,102642.38
2023-05-16T23:02:53.849Z,102630.88
2023-05-16T23:05:20.573Z,102632.66
2023-05-16T23:07:47.362Z,102641.50
2023-05-16T23:10:14.009Z,102639.75
2023-05-16T23:12:40.614Z,102633.56
2023-05-16T23:15:10.055Z,102636.19
2023-05-16T23:17:40.354Z,102634.44
2023-05-16T23:20:07.593Z,102638.00
2023-05-16T23:22:34.309Z,102643.31
2023-05-16T23:25:00.932Z,102641.50
2023-05-16T23:27:27.595Z,102642.41
2023-05-16T23:29:54.235Z,102653.91
2023-05-16T23:32:21.030Z,102653.91
2023-05-16T23:34:47.728Z,102650.38
2023-05-16T23:37:15.461Z,102653.94
2023-05-16T23:39:42.538Z,102658.34
2023-05-16T23:42:09.100Z,102650.38
2023-05-16T23:44:35.699Z,102655.69
2023-05-16T23:47:02.772Z,102653.03
2023-05-16T23:49:29.344Z,102651.25
2023-05-16T23:51:57.868Z,102661.00
2023-05-16T23:54:25.534Z,102658.31
2023-05-16T23:56:52.311Z,102660.94
2023-05-16T23:59:19.213Z,102670.72
